Etusivu
METAR-TAF:

METAR-TAF

Lentoasemat :

Jinotega, Nicaragua

Leveyspiiri: 13-05N, Pituuspiiri: 085-59W, korkeus merenpinnasta: 985 m

Tämänhetkinen sää

Tämä raportti tehtiin 1 tunti ja 1 minuuttia sitten, kello 21.00 UTC
Tuuli 8 kn luoteesta
Lämpötila 31°C
Kosteus 43%
Ilmanpaine 1010 hPa
Näkyvyys 10 km tai enemmän
Hajanaisia pilviä 2000 ft:n korkeudessa

METAR: MNJG 212100Z 32008KT 9999 SCT020 31/17 Q1010

Aika: 16:01 (22:01 UTC)


TAF: puuttuu

Säähavainnot ja -ennusteet yli 4000 lentoasemalta (METAR- ja TAF-raportit).

Käytössä olevat sääasemat on merkitty karttaan keltaisilla ja punaisilla pisteillä.

Aseta hiiri pisteen päälle nähdäksesi sääaseman nimen.

Klikkaa sitten nähdäksesi säähavainnot ja -ennusteet.

Kartan vaihtaminen: klikkaa mustalla rastilla varustettuja vihreitä pisteitä, niin voit zoomata sisään; viivalla varustettua vihreää pistettä, niin voit zoomata ulos tai vihreitä nuolia, niin pääset viereisille kartoille.


METAR-TAF: